Latest Coastal Weather Observations for Karratha

IDW60701

Issued at 5:29 pm WST Monday 30 March 2015 (issued every 10 minutes, with the page automatically refreshed every 10 minutes)

About coastal observations | Map of coastal stations | Coastal observations for WA | Marine services | Other Formats
Station Details ID: 004083 Name: KARRATHA AERO Lat: -20.71 Lon: 116.77 Height: 5.3 m
Data from the previous 72 hours. | See also: Recent months at Karratha
Date/Time
WST
Temp

°C
Wind Pressure Rain
since 9am
mm
Weather Cloud Vis
km
Sea
Height
m
Swell
Dir
 
Speed
knots
Gust
knots
hPa Trend Height
m
Period
s
Dir
30/05:00pm 29.2 NNE 14 18 1011.4 - 0.0 - Partly cloudy 10 - - - -
30/04:30pm 29.3 NNE 12 16 1011.2 - 0.0 - Partly cloudy 10 - - - -
30/04:00pm 29.4 NNE 13 16 1011.3 - 0.0 - - 10 - - - -
30/03:30pm 29.5 NE 13 16 1011.3 - 0.0 - - 10 - - - -
30/03:00pm 29.7 NNE 13 16 1011.3 - 0.0 - Cloudy 10 - - - -
30/02:30pm 29.8 NNE 11 14 1011.5 - 0.0 - Partly cloudy 10 - - - -
30/02:00pm 30.0 NNE 12 16 1012.1 - 0.0 - Partly cloudy 10 - - - -
30/01:30pm 30.6 NE 12 15 1011.9 - 0.0 - Cloudy 10 - - - -
30/01:00pm 31.0 NE 13 16 1011.6 - 0.0 - Partly cloudy 10 - - - -
30/12:30pm 32.1 ENE 14 18 1011.8 - 0.0 - Partly cloudy 10 - - - -
30/12:00pm 32.3 NE 13 17 1012.2 - 0.0 - Mostly cloudy 10 - - - -
30/11:30am 32.3 NE 15 19 1012.8 - 0.0 - Partly cloudy 10 - - - -
30/11:00am 31.2 NE 16 20 1013.1 - 0.0 - Partly cloudy 10 - - - -
30/10:30am 30.8 NE 17 21 1013.2 - 0.0 - - 10 - - - -
30/10:00am 30.2 ENE 16 20 1013.0 - 0.0 - Partly cloudy 10 - - - -
30/09:30am 28.9 ENE 10 14 1013.5 - 0.0 - Partly cloudy 10 - - - -
30/09:00am 28.2 ENE 10 13 1013.5 - 4.8 - Mostly cloudy 10 - - - -
30/08:30am 26.7 ESE 11 14 1013.3 - 4.8 - Partly cloudy 10 - - - -
30/08:00am 27.0 ENE 9 11 1013.4 - 4.8 - Partly cloudy 10 - - - -
30/07:30am 26.1 ENE 11 15 1013.0 - 4.8 - Partly cloudy 10 - - - -
30/07:19am 25.7 ENE 15 23 1012.9 - 4.8 - Partly cloudy 5 - - - -
30/07:11am 25.9 E 10 23 1012.5 - 4.6 - Partly cloudy 10 - - - -
30/07:00am 26.4 ENE 5 8 1012.6 - 4.6 - Partly cloudy 10 - - - -
30/06:30am 25.3 ENE 10 13 1012.6 - 4.6 - Partly cloudy 10 - - - -
30/06:00am 26.5 NE 19 25 1012.0 - 4.4 - Cloudy 10 - - - -
30/05:30am 26.6 NE 19 24 1011.5 - 4.4 - Partly cloudy 10 - - - -
30/05:06am 26.2 NE 17 20 1010.8 - 4.4 - Partly cloudy 10 - - - -
30/05:02am 26.2 NE 17 21 1010.8 - 4.4 - Partly cloudy 10 - - - -
30/05:00am 26.2 ENE 17 21 1010.8 - 4.4 - Partly cloudy 10 - - - -
30/04:37am 25.2 NE 15 22 1011.0 - 2.8 - Partly cloudy 5 - - - -
30/04:30am 25.7 ENE 18 22 1011.1 - 1.6 - Partly cloudy 10 - - - -
30/04:29am 25.6 ENE 18 24 1011.0 - 1.6 - Partly cloudy 10 - - - -
30/04:06am 25.1 E 26 36 1010.9 - 1.0 - Partly cloudy 5 - - - -
30/04:04am 25.0 ENE 27 37 1010.9 - 1.0 - Partly cloudy 6 - - - -
30/04:00am 25.9 ENE 23 37 1010.8 - 0.6 - Partly cloudy 10 - - - -
30/03:55am 26.8 NE 16 31 1010.6 - 0.6 - Partly cloudy 10 - - - -
30/03:30am 27.7 NE 14 18 1010.6 - 0.6 - Partly cloudy 10 - - - -
30/03:06am 27.8 NE 11 15 1010.9 - 0.6 - Partly cloudy 10 - - - -
30/03:00am 27.5 ENE 12 19 1010.6 - 0.6 Recent precip. Cloudy 9 - - - -
30/02:56am 27.2 ENE 15 25 1010.2 - 0.6 - Partly cloudy 5 - - - -
30/02:50am 26.9 ENE 15 25 1010.0 - 0.6 - Partly cloudy 5 - - - -
30/02:47am 27.0 ENE 14 25 1010.0 - 0.4 - Partly cloudy 9 - - - -
30/02:30am 28.5 ESE 12 14 1010.4 - 0.0 - Partly cloudy 10 - - - -
30/02:00am 28.6 ESE 11 15 1011.0 - 0.0 - Partly cloudy 10 - - - -
30/01:30am 28.7 ESE 11 14 1011.3 - 0.0 - Partly cloudy 10 - - - -
30/01:00am 29.0 ESE 11 14 1012.0 - 0.0 - Partly cloudy 10 - - - -
30/12:30am 29.2 E 13 15 1012.2 - 0.0 - Partly cloudy 10 - - - -
30/12:00am 29.2 E 13 16 1012.6 - 0.0 - Mostly cloudy 10 - - - -
 
Date/Time
WST
Temp

°C
Wind Pressure Rain
since 9am
mm
Weather Cloud Vis
km
Sea
Height
m
Swell
Dir
 
Speed
knots
Gust
knots
hPa Trend Height
m
Period
s
Dir
29/11:30pm 29.4 ENE 15 20 1012.6 - 0.0 - Partly cloudy 10 - - - -
29/11:00pm 29.4 E 15 19 1012.9 - 0.0 - Partly cloudy 10 - - - -
29/10:30pm 29.4 E 13 17 1013.3 - 0.0 - Partly cloudy 10 - - - -
29/10:00pm 29.4 ENE 12 15 1013.4 - 0.0 - - 10 - - - -
29/09:30pm 29.3 ENE 14 17 1013.3 - 0.0 - - 10 - - - -
29/09:00pm 29.3 ENE 13 16 1013.3 - 0.0 - Mostly clear 10 - - - -
29/08:30pm 29.5 ENE 14 17 1013.2 - 0.0 - Partly cloudy 10 - - - -
29/08:00pm 29.5 ENE 15 18 1012.8 - 0.0 - Partly cloudy 10 - - - -
29/07:30pm 29.8 ENE 16 21 1012.6 - 0.0 - Partly cloudy 10 - - - -
29/07:00pm 30.0 ENE 15 20 1012.1 - 0.0 - Partly cloudy 10 - - - -
29/06:30pm 30.1 NE 15 20 1011.6 - 0.0 - Partly cloudy 10 - - - -
29/06:00pm 30.4 NE 16 19 1011.0 - 0.0 - - 10 - - - -
29/05:30pm 30.8 NE 16 21 1010.7 - 0.0 - Partly cloudy 10 - - - -
29/05:00pm 31.8 NE 13 18 1010.4 - 0.0 - - 10 - - - -
29/04:30pm 32.5 NE 16 21 1010.5 - 0.0 - - 10 - - - -
29/04:00pm 32.8 NE 14 18 1010.3 - 0.0 - - 10 - - - -
29/03:30pm 33.0 NE 16 21 1010.1 - 0.0 - - 10 - - - -
29/03:00pm 33.7 NE 16 21 1009.7 - 0.0 - - 10 - - - -
29/02:30pm 32.9 NE 17 24 1010.0 - 0.0 - - 10 - - - -
29/02:00pm 33.7 NE 16 21 1010.1 - 0.0 - - 10 - - - -
29/01:30pm 34.1 NE 15 19 1010.4 - 0.0 - - 10 - - - -
29/01:00pm 33.0 NE 14 19 1010.9 - 0.0 - - 10 - - - -
29/12:30pm 34.1 NE 14 19 1011.4 - 0.0 - - 10 - - - -
29/12:00pm 33.4 NE 15 18 1012.0 - 0.0 - - 10 - - - -
29/11:30am 33.8 NE 13 16 1012.4 - 0.0 - - 10 - - - -
29/11:00am 33.2 NE 12 16 1012.9 - 0.0 - - 10 - - - -
29/10:30am 32.8 NE 11 14 1013.3 - 0.0 - - 10 - - - -
29/10:00am 33.1 NE 11 13 1013.4 - 0.0 - - 10 - - - -
29/09:30am 31.8 ENE 10 13 1013.2 - 0.0 - - 10 - - - -
29/09:00am 31.7 ENE 8 11 1013.1 - 0.0 - - 10 - - - -
29/08:30am 31.0 E 7 9 1012.9 - 0.0 - - 10 - - - -
29/08:00am 30.0 E 7 9 1012.8 - 0.0 - - 10 - - - -
29/07:30am 28.6 E 7 9 1012.4 - 0.0 - - 10 - - - -
29/07:00am 27.8 E 6 7 1012.1 - 0.0 - - 10 - - - -
29/06:30am 26.2 ESE 2 4 1011.9 - 0.0 - - 10 - - - -
29/06:00am 26.2 NE 3 3 1011.7 - 0.0 - - 10 - - - -
29/05:30am 26.8 CALM 0 0 1011.4 - 0.0 - - 10 - - - -
29/05:00am 26.4 NE 3 4 1011.2 - 0.0 - - 10 - - - -
29/04:30am 26.0 ENE 5 6 1011.0 - 0.0 - - 10 - - - -
29/04:00am 26.3 SE 3 4 1010.7 - 0.0 - - 10 - - - -
29/03:30am 27.2 SW 3 4 1010.5 - 0.0 - - 10 - - - -
29/03:00am 28.2 W 4 5 1010.5 - 0.0 - - 10 - - - -
29/02:30am 28.1 WSW 4 5 1010.5 - 0.0 - - 10 - - - -
29/02:00am 28.4 W 4 6 1010.8 - 0.0 - - 10 - - - -
29/01:30am 28.6 WSW 5 7 1011.0 - 0.0 - - 10 - - - -
29/01:00am 28.6 WSW 6 7 1011.3 - 0.0 - - 10 - - - -
29/12:30am 28.9 WSW 6 7 1011.6 - 0.0 - - 10 - - - -
29/12:00am 29.4 WSW 6 7 1011.9 - 0.0 - - 10 - - - -
 
Date/Time
WST
Temp

°C
Wind Pressure Rain
since 9am
mm
Weather Cloud Vis
km
Sea
Height
m
Swell
Dir
 
Speed
knots
Gust
knots
hPa Trend Height
m
Period
s
Dir
28/11:30pm 29.4 WSW 5 6 1012.3 - 0.0 - Partly cloudy 10 - - - -
28/11:00pm 29.5 SW 7 8 1012.5 - 0.0 - Partly cloudy 10 - - - -
28/10:30pm 29.4 SW 6 8 1012.8 - 0.0 - - 10 - - - -
28/10:00pm 30.2 WNW 5 6 1012.8 - 0.0 - - 10 - - - -
28/09:30pm 30.5 W 5 6 1012.7 - 0.0 - - 10 - - - -
28/09:00pm 30.5 WSW 6 8 1012.8 - 0.0 - - 10 - - - -
28/08:30pm 30.5 WSW 10 14 1012.7 - 0.0 - - 10 - - - -
28/08:00pm 30.9 WSW 8 11 1011.9 - 0.0 - - 10 - - - -
28/07:30pm 31.2 SW 9 15 1011.3 - 0.0 - - 10 - - - -
28/07:00pm 31.4 NNE 4 5 1010.6 - 0.0 - - 10 - - - -
28/06:30pm 31.6 NNE 9 11 1010.0 - 0.0 - - 10 - - - -
28/06:00pm 32.1 NNE 9 13 1009.6 - 0.0 - - 10 - - - -
28/05:30pm 33.0 NNE 11 14 1009.3 - 0.0 - - 10 - - - -
28/05:00pm 33.8 NNE 11 13 1009.1 - 0.0 - - 10 - - - -
28/04:30pm 34.7 NNE 13 16 1009.1 - 0.0 - - 10 - - - -
28/04:00pm 34.2 NNE 14 17 1009.1 - 0.0 - - 10 - - - -
28/03:30pm 35.5 NNE 12 16 1009.3 - 0.0 - - 10 - - - -
28/03:00pm 35.9 NE 14 18 1009.5 - 0.0 - Mostly clear 10 - - - -
28/02:30pm 35.5 NE 15 18 1009.6 - 0.0 - Partly cloudy 10 - - - -
28/02:00pm 34.9 NE 15 18 1009.9 - 0.0 - - 10 - - - -
28/01:30pm 35.4 NE 17 20 1010.4 - 0.0 - - 10 - - - -
28/01:00pm 35.3 NE 17 22 1010.7 - 0.0 - - 10 - - - -
28/12:30pm 36.1 NE 18 21 1011.3 - 0.0 - Partly cloudy 10 - - - -
28/12:00pm 35.7 NE 16 20 1011.8 - 0.0 - - 10 - - - -
28/11:30am 35.8 ENE 15 19 1012.4 - 0.0 - Partly cloudy 10 - - - -
28/11:00am 35.6 E 16 21 1012.9 - 0.0 - Partly cloudy 10 - - - -
28/10:30am 34.8 E 17 21 1013.2 - 0.0 - - 10 - - - -
28/10:00am 34.2 E 15 19 1013.5 - 0.0 - - 10 - - - -
28/09:30am 32.8 E 15 19 1013.6 - 0.0 - - 10 - - - -
28/09:00am 31.6 ENE 12 14 1013.6 - 0.0 - Mostly clear 10 - - - -
28/08:30am 29.9 ENE 10 12 1013.6 - 0.0 - - 10 - - - -
28/08:00am 28.5 ENE 10 11 1013.6 - 0.0 - - 10 - - - -
28/07:30am 27.5 E 10 12 1013.2 - 0.0 - - 10 - - - -
28/07:00am 26.6 E 9 11 1013.0 - 0.0 - - 10 - - - -
28/06:30am 25.9 E 9 11 1013.0 - 0.0 - - 10 - - - -
28/06:00am 25.8 E 9 11 1012.6 - 0.0 - - 10 - - - -
28/05:30am 26.3 E 8 9 1012.4 - 0.0 - - 10 - - - -
28/05:00am 27.1 E 8 9 1012.4 - 0.0 - - 10 - - - -
28/04:30am 27.2 ESE 7 8 1012.2 - 0.0 - - 10 - - - -
28/04:00am 27.6 E 7 8 1012.1 - 0.0 - - 10 - - - -
28/03:30am 27.3 ESE 6 7 1011.9 - 0.0 - - 10 - - - -
28/03:00am 28.0 E 7 10 1012.0 - 0.0 - Partly cloudy 10 - - - -
28/02:30am 28.0 ENE 8 10 1012.0 - 0.0 - - 10 - - - -
28/02:00am 28.0 ENE 8 9 1012.1 - 0.0 - - 10 - - - -
28/01:30am 28.2 E 7 8 1012.3 - 0.0 - - 10 - - - -
28/01:00am 28.2 E 5 6 1012.5 - 0.0 - - 10 - - - -
28/12:30am 28.6 E 5 6 1012.3 - 0.0 - - 10 - - - -
28/12:00am 29.1 CALM 0 0 1012.8 - 0.0 - - 10 - - - -
 
Date/Time
WST
Temp

°C
Wind Pressure Rain
since 9am
mm
Weather Cloud Vis
km
Sea
Height
m
Swell
Dir
 
Speed
knots
Gust
knots
hPa Trend Height
m
Period
s
Dir
27/11:30pm 29.5 CALM 0 0 1013.1 - 0.0 - - 10 - - - -
27/11:00pm 30.2 CALM 0 0 1013.2 - 0.0 - - 10 - - - -
27/10:30pm 30.4 CALM 0 3 1013.4 - 0.0 - - 10 - - - -
27/10:00pm 30.6 ESE 3 4 1013.7 - 0.0 - - 10 - - - -
27/09:30pm 30.5 SE 4 6 1013.8 - 0.0 - - 10 - - - -
27/09:00pm 30.5 N 3 5 1013.6 - 0.0 - - 10 - - - -
27/08:30pm 30.3 ENE 3 4 1013.4 - 0.0 - - 10 - - - -
27/08:00pm 30.7 E 5 7 1013.2 - 0.0 - - 10 - - - -
27/07:30pm 31.5 SSE 4 5 1012.6 - 0.0 - - 10 - - - -
27/07:00pm 32.0 SSW 8 13 1012.3 - 0.0 - - 10 - - - -
27/06:30pm 32.7 NNE 9 11 1011.1 - 0.0 - - 10 - - - -
27/06:00pm 32.6 NNE 8 11 1010.6 - 0.0 - - 10 - - - -
27/05:30pm 33.4 NNE 11 13 1010.1 - 0.0 - - 10 - - - -

Other Formats:

Comma delimited format used in spreadsheet applications
http://www.bom.gov.au/fwo/IDW60701/IDW60701.95307.axf

JavaScript Object Notation format (JSON) in row-major order
http://www.bom.gov.au/fwo/IDW60701/IDW60701.95307.json